Time;durP1;ratioP1;P1;durP2;ratioP2;P2;SDS_P1;SDS_P2;PMS_P1;PMS_P2;Temp;Humidity;BMP_temperature;BMP_pressure;BME280_temperature;BME280_humidity;BME280_pressure;Samples;Min_cycle;Max_cycle;Signal;HPM_P1;HPM_P2
2022/10/11 00:04:40;;;;;;;44.05;20.60;;;;;;;15.15;100.00;101017.22;4850990;23;20044;-83
2022/10/11 00:10:52;;;;;;;40.55;21.38;;;;;;;14.80;100.00;101014.16;4939748;29;20052;-84
2022/10/11 00:36:35;;;;;;;42.40;21.30;;;;;;;15.09;100.00;101009.94;5555969;23;20095;-84
2022/10/11 00:47:55;;;;;;;40.95;21.83;;;;;;;14.96;100.00;101007.88;5682093;23;20075;-82
2022/10/11 00:51:32;;;;;;;37.85;22.02;;;;;;;15.00;100.00;101002.00;4968175;23;20048;-83
2022/10/11 01:59:38;;;;;;;43.67;23.20;;;;;;;14.84;100.00;100966.59;4959738;29;20123;-83
2022/10/11 02:06:10;;;;;;;42.10;21.80;;;;;;;14.94;100.00;100970.69;4964689;23;20078;-83
2022/10/11 02:09:45;;;;;;;39.90;22.70;;;;;;;15.07;100.00;100955.91;4958090;29;20064;-82
2022/10/11 02:19:56;;;;;;;43.30;23.38;;;;;;;14.74;100.00;100964.19;4972457;23;20055;-86
2022/10/11 02:31:24;;;;;;;45.90;23.03;;;;;;;14.31;100.00;100962.94;4390343;27;20044;-82
2022/10/11 02:37:06;;;;;;;43.92;24.83;;;;;;;14.14;100.00;100956.03;5128455;23;20051;-84
2022/10/11 02:40:50;;;;;;;46.53;23.23;;;;;;;14.13;100.00;100958.84;4953924;29;20035;-80
2022/10/11 02:43:46;;;;;;;50.15;23.75;;;;;;;14.10;100.00;100964.53;4958824;29;20107;-81
2022/10/11 03:23:09;;;;;;;40.03;23.42;;;;;;;13.87;100.00;100949.31;5094056;23;20063;-84
2022/10/11 03:29:12;;;;;;;42.63;23.55;;;;;;;13.80;100.00;100953.66;2657334;23;20386;-84
2022/10/11 03:32:18;;;;;;;33.10;17.65;;;;;;;13.83;100.00;100957.81;4973782;23;20124;-82
2022/10/11 03:35:20;;;;;;;45.33;23.85;;;;;;;13.94;100.00;100955.63;4954945;29;20083;-84
2022/10/11 03:40:56;;;;;;;47.08;24.27;;;;;;;13.98;100.00;100954.28;5259406;23;20071;-82
2022/10/11 03:46:38;;;;;;;46.33;23.23;;;;;;;14.18;100.00;100961.84;2313093;23;20351;-84
2022/10/11 03:49:48;;;;;;;43.15;22.73;;;;;;;14.26;100.00;100969.78;4936716;29;20122;-84
2022/10/11 03:52:51;;;;;;;41.88;23.15;;;;;;;14.22;100.00;100973.81;4958913;29;20063;-84
2022/10/11 03:56:11;;;;;;;48.22;24.38;;;;;;;14.13;100.00;100964.19;4953565;29;20055;-84
2022/10/11 03:59:06;;;;;;;45.83;25.38;;;;;;;13.96;100.00;100958.94;4949642;29;20048;-83
2022/10/11 04:01:54;;;;;;;46.72;24.17;;;;;;;13.92;100.00;100960.28;4944459;29;20044;-84
2022/10/11 04:05:11;;;;;;;42.10;22.95;;;;;;;13.92;100.00;100962.94;4959661;29;20035;-83
2022/10/11 04:07:48;;;;;;;44.22;23.90;;;;;;;13.85;100.00;100961.16;4941696;29;20058;-84
2022/10/11 04:15:52;;;;;;;50.53;26.40;;;;;;;13.60;100.00;100951.56;3044546;23;20055;-83
2022/10/11 04:19:02;;;;;;;47.40;24.58;;;;;;;13.63;100.00;100954.72;4955070;29;20047;-86
2022/10/11 04:21:40;;;;;;;43.10;22.77;;;;;;;13.65;100.00;100955.41;4881426;29;20092;-86
2022/10/11 04:25:17;;;;;;;48.30;25.52;;;;;;;13.56;100.00;100953.75;4871632;29;20053;-86
2022/10/11 04:28:55;;;;;;;45.13;23.33;;;;;;;13.53;100.00;100962.06;4881760;29;20053;-89
2022/10/11 04:32:05;;;;;;;49.63;25.40;;;;;;;13.60;100.00;100957.72;4899037;29;20090;-87
2022/10/11 04:35:12;;;;;;;45.63;25.13;;;;;;;13.50;100.00;100956.25;4935227;29;20064;-86
2022/10/11 04:40:40;;;;;;;43.85;25.00;;;;;;;13.36;100.00;100955.94;3940241;26;20039;-86
2022/10/11 04:43:50;;;;;;;50.30;25.48;;;;;;;13.23;100.00;100963.63;4956008;29;20051;-85
2022/10/11 04:49:47;;;;;;;47.08;25.20;;;;;;;13.06;100.00;100964.59;4956903;29;20119;-84
2022/10/11 04:52:46;;;;;;;45.53;25.52;;;;;;;13.02;100.00;100962.47;4956051;29;20087;-85
2022/10/11 04:56:18;;;;;;;49.67;25.40;;;;;;;13.08;100.00;100961.78;4958074;29;20070;-84
2022/10/11 04:59:19;;;;;;;55.13;26.98;;;;;;;13.07;100.00;100957.47;4941964;29;20050;-85
2022/10/11 05:02:13;;;;;;;58.67;26.65;;;;;;;13.09;100.00;100966.16;4952742;29;20048;-84
2022/10/11 05:07:57;;;;;;;50.47;26.05;;;;;;;13.17;100.00;100969.63;4984001;23;20060;-87
2022/10/11 05:10:28;;;;;;;48.30;25.67;;;;;;;13.24;100.00;100961.81;5178483;23;20055;-89
2022/10/11 05:18:36;;;;;;;48.55;24.17;;;;;;;13.19;100.00;100958.84;5083236;23;20055;-86
2022/10/11 05:21:25;;;;;;;54.15;27.05;;;;;;;13.10;100.00;100973.13;4943129;29;20121;-88
2022/10/11 05:24:13;;;;;;;49.00;25.55;;;;;;;13.08;100.00;100972.44;4941305;29;20112;-87
2022/10/11 05:29:25;;;;;;;51.05;27.42;;;;;;;13.06;100.00;100974.44;4939802;29;20058;-86
2022/10/11 05:31:50;;;;;;;45.95;24.95;;;;;;;13.02;100.00;100976.59;4941980;29;20401;-89
2022/10/11 05:34:16;;;;;;;43.33;24.65;;;;;;;13.03;100.00;100977.41;4942753;29;20042;-84
2022/10/11 05:36:41;;;;;;;44.78;23.42;;;;;;;13.01;100.00;100971.44;4942134;29;20042;-84
2022/10/11 05:39:07;;;;;;;52.28;24.48;;;;;;;13.05;100.00;100984.25;4940175;29;20067;-85
2022/10/11 05:41:33;;;;;;;50.20;25.48;;;;;;;13.18;100.00;100979.28;4940615;29;20163;-85
2022/10/11 05:43:58;;;;;;;48.17;25.25;;;;;;;13.24;100.00;100977.78;4938577;29;20039;-85
2022/10/11 05:46:24;;;;;;;44.30;24.83;;;;;;;13.35;100.00;100988.09;4940609;29;20524;-85
2022/10/11 05:48:49;;;;;;;50.95;25.08;;;;;;;13.30;100.00;100979.75;4938781;29;20118;-85
2022/10/11 05:51:15;;;;;;;45.67;24.80;;;;;;;13.46;100.00;100987.72;4936743;29;20445;-86
2022/10/11 05:53:40;;;;;;;54.38;23.83;;;;;;;13.52;100.00;100989.72;4937111;29;20429;-86
2022/10/11 05:56:18;;;;;;;43.17;24.92;;;;;;;13.48;100.00;100985.72;4936770;29;20490;-87
2022/10/11 05:58:43;;;;;;;43.53;24.13;;;;;;;13.66;100.00;100991.66;4935574;29;20040;-87
2022/10/11 06:01:26;;;;;;;43.95;24.33;;;;;;;13.93;100.00;100996.59;4936610;29;20043;-87
2022/10/11 06:03:52;;;;;;;47.08;23.98;;;;;;;13.85;100.00;100995.78;4936663;29;20031;-86
2022/10/11 06:06:19;;;;;;;51.63;23.67;;;;;;;13.99;100.00;101005.72;4936588;29;20517;-84
2022/10/11 06:08:45;;;;;;;45.05;23.67;;;;;;;13.99;100.00;101003.06;4936863;29;20035;-88
2022/10/11 06:11:13;;;;;;;43.33;23.00;;;;;;;14.11;100.00;101008.84;4936791;29;20043;-87
2022/10/11 06:13:39;;;;;;;48.97;23.02;;;;;;;14.26;100.00;101012.44;4935448;29;20032;-83
2022/10/11 06:16:06;;;;;;;41.88;24.48;;;;;;;14.63;100.00;101020.59;4935522;29;20390;-86
2022/10/11 06:18:31;;;;;;;42.28;24.15;;;;;;;14.82;100.00;101033.47;4920099;29;20527;-86
2022/10/11 06:20:58;;;;;;;39.25;22.20;;;;;;;14.87;100.00;101033.81;4937042;29;20039;-89
2022/10/11 06:23:24;;;;;;;41.13;21.05;;;;;;;15.06;100.00;101032.47;4934273;29;20042;-86
2022/10/11 06:26:01;;;;;;;39.03;22.80;;;;;;;15.22;100.00;101031.50;4935598;29;20119;-84
2022/10/11 06:28:28;;;;;;;41.88;22.45;;;;;;;15.92;100.00;101030.19;4935103;29;20519;-85
2022/10/11 06:30:55;;;;;;;37.47;21.48;;;;;;;16.15;100.00;101034.59;4937046;29;20111;-86
2022/10/11 06:33:21;;;;;;;44.08;21.90;;;;;;;15.90;100.00;101032.22;4936279;29;20100;-84
2022/10/11 06:35:47;;;;;;;35.28;20.67;;;;;;;16.31;100.00;101039.75;4936711;29;20481;-84
2022/10/11 06:38:12;;;;;;;43.13;22.58;;;;;;;16.11;100.00;101036.81;4936374;29;20065;-85
2022/10/11 06:40:38;;;;;;;43.60;21.38;;;;;;;16.77;100.00;101054.53;4940595;29;20323;-87
2022/10/11 06:43:03;;;;;;;45.60;22.08;;;;;;;16.74;100.00;101062.09;4938751;29;20412;-88
2022/10/11 06:45:29;;;;;;;42.10;21.65;;;;;;;16.88;100.00;101059.41;4936787;29;20028;-85
2022/10/11 06:47:55;;;;;;;36.22;20.88;;;;;;;17.27;100.00;101058.13;4937921;29;20079;-84
2022/10/11 06:50:20;;;;;;;39.80;21.42;;;;;;;17.35;100.00;101061.50;4939754;29;20031;-86
2022/10/11 06:52:46;;;;;;;35.70;21.83;;;;;;;17.77;100.00;101075.88;4940608;29;20047;-85
2022/10/11 06:55:12;;;;;;;38.22;20.58;;;;;;;17.45;100.00;101069.22;4941967;29;20039;-85
2022/10/11 06:57:40;;;;;;;38.30;21.25;;;;;;;18.25;100.00;101074.13;4941606;29;20031;-88
2022/10/11 07:00:07;;;;;;;39.10;21.08;;;;;;;18.23;100.00;101081.56;4944935;29;20058;-84
2022/10/11 07:02:32;;;;;;;33.47;20.00;;;;;;;18.06;100.00;101076.50;4947963;29;20117;-86
2022/10/11 07:04:58;;;;;;;33.45;20.80;;;;;;;17.77;100.00;101087.44;4948912;29;20031;-86
2022/10/11 07:07:26;;;;;;;33.97;20.10;;;;;;;17.86;100.00;101080.94;4951373;29;20042;-85
2022/10/11 07:09:51;;;;;;;41.95;21.33;;;;;;;17.34;100.00;101077.75;4950857;29;20031;-87
2022/10/11 07:12:17;;;;;;;49.22;20.20;;;;;;;17.64;100.00;101081.97;4946457;29;20054;-85
2022/10/11 07:14:43;;;;;;;46.00;21.92;;;;;;;17.45;100.00;101071.91;4946960;29;20035;-86
2022/10/11 07:17:08;;;;;;;38.00;20.73;;;;;;;17.48;100.00;101082.22;4946954;29;20470;-85
2022/10/11 07:19:34;;;;;;;38.70;20.45;;;;;;;17.71;100.00;101080.19;4948077;29;20521;-85
2022/10/11 07:21:59;;;;;;;34.33;19.80;;;;;;;18.00;100.00;101088.00;4945697;29;20409;-86
2022/10/11 07:24:25;;;;;;;44.22;22.27;;;;;;;18.32;100.00;101077.69;4940916;29;20137;-88
2022/10/11 07:26:50;;;;;;;38.45;19.90;;;;;;;18.41;100.00;101087.22;4940553;29;20046;-85
2022/10/11 07:29:16;;;;;;;36.90;19.48;;;;;;;18.46;100.00;101087.47;4939010;29;20050;-85
2022/10/11 07:31:42;;;;;;;41.08;19.83;;;;;;;18.50;100.00;101081.50;4939953;29;20557;-86
2022/10/11 07:34:09;;;;;;;36.70;19.27;;;;;;;18.49;100.00;101087.06;4939826;29;20110;-85
2022/10/11 07:36:34;;;;;;;37.13;20.15;;;;;;;18.56;100.00;101082.53;4938541;29;20043;-86
2022/10/11 07:39:05;;;;;;;37.80;19.65;;;;;;;18.75;100.00;101081.81;4940365;29;20091;-86
2022/10/11 07:41:30;;;;;;;34.72;18.40;;;;;;;19.58;100.00;101084.06;4939868;29;20123;-87
2022/10/11 07:43:56;;;;;;;38.40;19.38;;;;;;;20.08;100.00;101084.41;4939728;29;20031;-86
2022/10/11 07:46:21;;;;;;;37.60;19.17;;;;;;;20.04;100.00;101089.38;4939484;29;20055;-90
2022/10/11 07:48:48;;;;;;;35.78;19.30;;;;;;;20.08;100.00;101087.91;4940734;29;20024;-86
2022/10/11 07:51:20;;;;;;;31.38;18.50;;;;;;;20.56;100.00;101092.97;4939497;29;20103;-86
2022/10/11 07:53:54;;;;;;;29.42;17.60;;;;;;;20.78;100.00;101088.94;4937992;29;20036;-85
2022/10/11 07:56:23;;;;;;;34.90;18.75;;;;;;;20.83;100.00;101089.13;4937690;29;20032;-89
2022/10/11 07:58:53;;;;;;;32.30;18.20;;;;;;;21.74;94.68;101091.44;4938886;29;20389;-89
2022/10/11 08:01:20;;;;;;;33.92;17.88;;;;;;;22.39;88.44;101095.34;4938963;29;20435;-88
2022/10/11 08:03:46;;;;;;;30.73;17.98;;;;;;;22.52;87.79;101100.59;4921956;29;20046;-88
2022/10/11 08:06:14;;;;;;;28.90;18.02;;;;;;;22.55;89.89;101100.13;4922011;29;20082;-88
2022/10/11 08:08:39;;;;;;;28.42;17.85;;;;;;;22.28;88.69;101099.63;4937665;29;20023;-90
2022/10/11 08:11:05;;;;;;;33.97;17.40;;;;;;;22.25;91.37;101112.75;4936922;29;20489;-87
2022/10/11 08:13:31;;;;;;;31.15;18.90;;;;;;;22.04;89.91;101109.41;4938691;29;20050;-87
2022/10/11 08:15:57;;;;;;;42.00;19.08;;;;;;;22.15;88.93;101111.38;4939304;29;20109;-88
2022/10/11 08:18:23;;;;;;;31.65;18.92;;;;;;;21.75;92.94;101115.47;4938517;29;20054;-86
2022/10/11 08:20:49;;;;;;;37.85;18.73;;;;;;;21.70;92.26;101115.31;4938809;29;20032;-87
2022/10/11 08:23:16;;;;;;;36.75;17.25;;;;;;;21.98;91.17;101121.09;4937821;29;20087;-88
2022/10/11 08:25:44;;;;;;;55.25;20.20;;;;;;;22.01;91.93;101109.88;4939142;29;20050;-88
2022/10/11 08:28:15;;;;;;;32.97;18.65;;;;;;;21.99;92.54;101111.97;4938385;29;20050;-86
2022/10/11 08:30:47;;;;;;;35.83;18.20;;;;;;;22.07;92.66;101108.16;4933409;29;20063;-90
2022/10/11 08:33:16;;;;;;;31.00;18.27;;;;;;;22.17;93.90;101109.28;4927264;29;20486;-90
2022/10/11 08:35:42;;;;;;;39.35;18.95;;;;;;;22.11;95.70;101110.19;4927899;29;20386;-91
2022/10/11 08:38:08;;;;;;;37.95;18.13;;;;;;;22.71;91.12;101109.53;4929121;29;20032;-87
2022/10/11 08:40:34;;;;;;;30.52;17.13;;;;;;;22.88;93.89;101107.84;4926211;29;20032;-89
2022/10/11 08:43:14;;;;;;;32.28;17.98;;;;;;;22.77;94.50;101109.44;4927337;29;20043;-91
2022/10/11 08:45:45;;;;;;;32.35;18.63;;;;;;;22.77;91.42;101114.84;4928252;29;20087;-90
2022/10/11 08:48:19;;;;;;;34.78;19.65;;;;;;;22.72;91.93;101112.03;4925844;29;20032;-90
2022/10/11 08:50:48;;;;;;;27.65;17.90;;;;;;;22.77;90.36;101111.34;4926024;29;20040;-88
2022/10/11 08:53:17;;;;;;;32.53;18.25;;;;;;;22.57;93.24;101109.66;4925780;29;20088;-89
2022/10/11 08:55:47;;;;;;;33.65;19.17;;;;;;;22.96;88.43;101113.78;4929566;29;20040;-89
2022/10/11 08:58:17;;;;;;;35.13;19.52;;;;;;;22.66;89.79;101115.63;4927004;29;20036;-88
2022/10/11 09:00:45;;;;;;;34.25;19.65;;;;;;;23.39;86.58;101118.16;4929618;29;20040;-88
2022/10/11 09:03:22;;;;;;;30.83;18.70;;;;;;;23.47;86.09;101115.97;4925696;29;20047;-89
2022/10/11 09:06:01;;;;;;;31.15;19.35;;;;;;;23.00;86.54;101114.16;4925342;29;20054;-87
2022/10/11 09:09:09;;;;;;;34.42;19.23;;;;;;;22.53;89.95;101107.66;4929798;29;20238;-86
2022/10/11 09:11:44;;;;;;;32.35;19.25;;;;;;;22.37;92.13;101108.25;4929549;29;20039;-90
2022/10/11 09:14:21;;;;;;;30.02;17.77;;;;;;;22.19;93.94;101105.53;4935260;29;20035;-87
2022/10/11 09:16:55;;;;;;;33.33;19.88;;;;;;;21.95;96.71;101097.25;4882538;29;20930;-88
2022/10/11 09:19:27;;;;;;;32.47;19.30;;;;;;;21.77;97.28;101101.78;4912892;29;20454;-88
2022/10/11 09:22:19;;;;;;;30.33;18.85;;;;;;;21.74;97.95;101097.66;4943188;29;20067;-86
2022/10/11 09:25:09;;;;;;;31.97;20.60;;;;;;;21.27;100.00;101101.75;4953708;29;20036;-87
2022/10/11 09:27:39;;;;;;;33.40;19.65;;;;;;;21.41;100.00;101105.19;4951868;29;20043;-88
2022/10/11 09:30:10;;;;;;;36.63;20.63;;;;;;;21.75;97.65;101096.59;4952110;29;20076;-87
2022/10/11 09:32:39;;;;;;;34.50;19.67;;;;;;;21.35;100.00;101088.00;4935654;29;20072;-85
2022/10/11 09:35:12;;;;;;;36.35;20.08;;;;;;;21.00;100.00;101090.28;4925343;29;20454;-88
2022/10/11 09:37:55;;;;;;;36.08;19.58;;;;;;;21.04;100.00;101086.13;4925932;29;20040;-87
2022/10/11 09:40:45;;;;;;;34.03;18.95;;;;;;;21.11;100.00;101081.50;4927716;29;20035;-87
2022/10/11 09:43:11;;;;;;;31.27;19.13;;;;;;;22.22;97.41;101078.91;4928929;29;20036;-87
2022/10/11 09:45:37;;;;;;;38.80;20.23;;;;;;;22.04;95.93;101090.53;4925832;29;20039;-90
2022/10/11 09:48:06;;;;;;;33.33;19.48;;;;;;;22.19;95.55;101078.53;4925259;29;20020;-89
2022/10/11 09:50:34;;;;;;;31.30;18.65;;;;;;;22.00;95.71;101089.34;4923401;29;20040;-85
2022/10/11 09:53:03;;;;;;;30.10;17.77;;;;;;;22.02;96.31;101095.31;4927308;29;20071;-86
2022/10/11 09:55:31;;;;;;;33.30;19.40;;;;;;;22.54;93.30;101093.91;4927427;29;20040;-88
2022/10/11 09:57:56;;;;;;;40.47;19.00;;;;;;;22.28;94.90;101087.97;4923306;29;20072;-87
2022/10/11 10:00:25;;;;;;;35.08;20.15;;;;;;;21.79;99.96;101099.66;4927109;29;20035;-88
2022/10/11 10:02:56;;;;;;;42.25;19.20;;;;;;;21.69;100.00;101094.78;4928055;29;20103;-85
2022/10/11 10:05:31;;;;;;;31.33;18.77;;;;;;;22.12;98.55;101105.63;4929700;29;20038;-86
2022/10/11 10:08:03;;;;;;;36.72;19.27;;;;;;;22.92;92.70;101101.78;4930318;29;20057;-87
2022/10/11 10:10:28;;;;;;;29.27;18.50;;;;;;;22.76;94.13;101102.41;4931190;29;20032;-87
2022/10/11 10:12:58;;;;;;;32.88;18.17;;;;;;;22.86;92.94;101100.00;4927817;29;20035;-87
2022/10/11 10:15:28;;;;;;;30.42;17.58;;;;;;;22.62;94.28;101095.47;4926724;29;20032;-88
2022/10/11 10:17:54;;;;;;;26.38;17.33;;;;;;;22.33;95.39;101091.69;4926259;29;20494;-87
2022/10/11 10:20:32;;;;;;;31.65;18.25;;;;;;;23.13;92.59;101095.03;4927113;29;20119;-89
2022/10/11 10:23:22;;;;;;;33.63;16.85;;;;;;;24.40;83.66;101091.63;4910229;29;20043;-87
2022/10/11 10:25:51;;;;;;;25.48;16.48;;;;;;;23.78;85.82;101095.88;4926210;29;20123;-86
2022/10/11 10:28:18;;;;;;;26.38;16.10;;;;;;;23.50;86.58;101101.13;4924276;29;20071;-87
2022/10/11 10:30:57;;;;;;;32.30;16.38;;;;;;;23.56;87.25;101097.53;4909388;29;20042;-86
2022/10/11 10:33:25;;;;;;;30.55;17.10;;;;;;;23.09;89.10;101099.25;4926170;29;20628;-88
2022/10/11 10:36:04;;;;;;;23.65;15.95;;;;;;;22.63;91.19;101091.75;4925036;29;20043;-87
2022/10/11 10:38:39;;;;;;;31.50;18.25;;;;;;;21.65;98.00;101094.38;4925689;29;20122;-87
2022/10/11 10:41:13;;;;;;;32.63;18.77;;;;;;;21.72;98.95;101090.81;4926711;29;20115;-88
2022/10/11 10:43:42;;;;;;;27.23;18.35;;;;;;;21.44;100.00;101085.88;4926019;29;20123;-86
2022/10/11 10:46:43;;;;;;;27.25;17.67;;;;;;;21.93;100.00;101090.44;4924629;29;20114;-89
2022/10/11 10:49:41;;;;;;;29.80;18.05;;;;;;;21.94;98.53;101090.19;4857601;29;20072;-89
2022/10/11 10:52:36;;;;;;;28.83;17.52;;;;;;;22.31;95.12;101093.75;4906699;29;20532;-89
2022/10/11 10:55:17;;;;;;;29.50;18.05;;;;;;;22.45;94.83;101086.34;4926406;29;20401;-88
2022/10/11 10:57:45;;;;;;;25.13;16.02;;;;;;;22.58;93.99;101089.69;4927165;29;20076;-86
2022/10/11 11:00:22;;;;;;;28.10;16.67;;;;;;;22.78;92.61;101094.06;4924802;29;20028;-90
2022/10/11 11:02:59;;;;;;;27.45;18.13;;;;;;;22.34;94.49;101084.41;4926757;29;20036;-89
2022/10/11 11:06:09;;;;;;;32.80;18.15;;;;;;;22.45;94.62;101078.22;4924903;29;20036;-88
2022/10/11 11:09:05;;;;;;;26.73;17.10;;;;;;;22.72;93.99;101073.34;4921141;29;20052;-90
2022/10/11 11:12:01;;;;;;;25.75;16.83;;;;;;;22.53;94.88;101077.94;4915976;29;20111;-88
2022/10/11 11:15:01;;;;;;;21.35;15.07;;;;;;;22.64;94.99;101077.97;4915936;29;20075;-87
2022/10/11 11:18:04;;;;;;;29.00;16.50;;;;;;;22.59;94.11;101064.34;4917042;29;20043;-88
2022/10/11 11:21:20;;;;;;;23.27;15.02;;;;;;;22.81;91.95;101072.81;4917281;29;20075;-89
2022/10/11 11:24:11;;;;;;;30.27;16.77;;;;;;;22.89;90.45;101072.50;4893046;29;20052;-90
2022/10/11 11:26:45;;;;;;;25.98;17.35;;;;;;;23.64;83.21;101068.22;4915027;29;20044;-91
2022/10/11 11:29:39;;;;;;;27.83;17.23;;;;;;;23.80;83.45;101072.09;4918305;29;20047;-90
2022/10/11 11:32:29;;;;;;;27.02;15.50;;;;;;;24.46;79.37;101071.69;4917284;29;20032;-91
2022/10/11 11:35:02;;;;;;;30.52;15.95;;;;;;;23.62;83.58;101069.50;4915757;29;20051;-90
2022/10/11 11:37:45;;;;;;;23.83;14.88;;;;;;;24.11;82.45;101066.31;4925825;29;20032;-92
2022/10/11 11:51:40;;;;;;;30.35;17.60;;;;;;;24.58;75.16;101068.94;3038614;26;20095;-91
2022/10/11 11:57:37;;;;;;;19.73;13.20;;;;;;;25.18;72.04;101059.28;5023483;23;20072;-91
2022/10/11 12:00:14;;;;;;;34.25;19.05;;;;;;;24.27;76.11;101062.06;4927978;29;20136;-93
2022/10/11 12:03:18;;;;;;;23.38;15.82;;;;;;;23.56;78.88;101054.22;4915337;29;20040;-94
2022/10/11 12:06:22;;;;;;;33.00;17.45;;;;;;;23.14;81.95;101062.34;4925001;29;20044;-92
2022/10/11 12:09:19;;;;;;;27.40;16.50;;;;;;;23.06;83.47;101054.56;4899947;29;20036;-92
2022/10/11 12:11:54;;;;;;;36.55;17.25;;;;;;;22.97;84.82;101055.94;4923730;29;20490;-94
2022/10/11 12:14:36;;;;;;;29.35;17.92;;;;;;;22.96;86.16;101065.13;4908711;29;20178;-92
2022/10/11 12:17:18;;;;;;;30.63;18.38;;;;;;;22.69;86.27;101053.03;4923967;29;20139;-93
2022/10/11 12:20:10;;;;;;;25.63;16.05;;;;;;;22.53;84.10;101042.81;4924624;29;20112;-93
2022/10/11 12:22:50;;;;;;;36.95;17.35;;;;;;;22.08;85.08;101045.84;4922765;29;20047;-93
2022/10/11 12:25:24;;;;;;;27.42;14.18;;;;;;;22.23;83.49;101041.94;4908248;29;20111;-91
2022/10/11 12:27:52;;;;;;;27.70;15.73;;;;;;;22.22;82.55;101040.28;4922909;29;20109;-92
2022/10/11 12:30:43;;;;;;;27.40;15.80;;;;;;;22.05;83.88;101035.50;4926801;29;20292;-91
2022/10/11 12:33:31;;;;;;;22.50;13.25;;;;;;;22.36;82.11;101033.69;4905969;29;20113;-90
2022/10/11 12:36:31;;;;;;;28.98;14.85;;;;;;;22.23;81.95;101041.94;4926397;29;20045;-92
2022/10/11 12:39:18;;;;;;;27.48;14.02;;;;;;;22.48;79.92;101045.34;4866811;29;20064;-92
2022/10/11 12:41:46;;;;;;;26.85;12.98;;;;;;;22.20;81.74;101040.53;4838712;29;20049;-94
2022/10/11 12:44:27;;;;;;;22.65;13.93;;;;;;;22.16;81.77;101036.63;4851231;29;20480;-92
2022/10/11 12:46:53;;;;;;;23.38;13.43;;;;;;;22.07;82.58;101033.38;4833786;29;20135;-91
2022/10/11 12:49:40;;;;;;;30.88;19.08;;;;;;;22.40;83.76;101029.47;4879534;29;20060;-90
2022/10/11 12:52:15;;;;;;;48.35;29.23;;;;;;;22.39;83.08;101023.25;4921676;29;20062;-94
2022/10/11 12:55:28;;;;;;;25.83;15.63;;;;;;;22.48;82.48;101021.03;4923826;29;20406;-92
2022/10/11 12:58:16;;;;;;;27.67;16.45;;;;;;;22.40;83.98;101015.97;4906537;29;20040;-89
2022/10/11 13:01:02;;;;;;;33.92;17.20;;;;;;;22.29;85.12;101017.56;4925045;29;20051;-90
2022/10/11 13:03:37;;;;;;;32.72;18.05;;;;;;;22.41;82.62;101012.19;4924000;29;20071;-94
2022/10/11 13:06:25;;;;;;;22.60;15.15;;;;;;;22.23;83.91;101014.94;4928855;29;20032;-91
2022/10/11 13:08:55;;;;;;;25.98;16.02;;;;;;;22.30;83.53;101004.88;4935326;29;20179;-90
2022/10/11 13:11:29;;;;;;;25.98;16.02;;;;;;;22.62;80.37;101014.41;4938727;29;20201;-90
2022/10/11 13:13:58;;;;;;;30.17;14.20;;;;;;;22.41;80.63;101009.50;4924821;29;20047;-90
2022/10/11 13:16:29;;;;;;;22.05;13.95;;;;;;;22.34;79.98;101000.69;4941401;29;20506;-92
2022/10/11 13:18:59;;;;;;;19.33;11.50;;;;;;;22.29;78.53;101000.53;4924012;29;20040;-93
2022/10/11 13:21:33;;;;;;;28.00;12.77;;;;;;;22.36;77.99;101002.09;4939795;29;20081;-92
2022/10/11 13:24:03;;;;;;;28.52;13.20;;;;;;;22.42;76.97;101001.19;4922556;29;20039;-91
2022/10/11 13:26:30;;;;;;;23.10;13.23;;;;;;;22.31;77.63;101001.94;4924944;29;20067;-91
2022/10/11 13:28:56;;;;;;;20.33;12.20;;;;;;;22.08;77.98;100991.84;4939964;29;20478;-90
2022/10/11 13:31:23;;;;;;;22.63;10.68;;;;;;;21.96;76.04;100993.66;4941995;29;20032;-91
2022/10/11 13:33:53;;;;;;;23.77;10.90;;;;;;;21.97;76.47;100989.09;4944027;29;20047;-93
2022/10/11 13:36:24;;;;;;;17.50;10.05;;;;;;;22.00;75.80;100992.16;4943761;29;20036;-91
2022/10/11 13:38:59;;;;;;;16.63;9.27;;;;;;;22.00;77.31;100991.34;4900956;29;20036;-92
2022/10/11 13:41:31;;;;;;;19.08;9.43;;;;;;;22.26;77.07;100993.72;4888534;29;20037;-92
2022/10/11 13:43:59;;;;;;;26.48;12.50;;;;;;;22.26;77.52;100990.19;4908963;29;20051;-92
2022/10/11 13:46:30;;;;;;;23.30;12.07;;;;;;;22.49;77.91;100996.53;4916927;29;20565;-91
2022/10/11 13:49:05;;;;;;;21.00;12.63;;;;;;;22.58;78.50;100988.91;4914360;29;20040;-92
2022/10/11 13:51:34;;;;;;;23.80;12.25;;;;;;;22.37;79.87;100990.22;4905903;29;20073;-91
2022/10/11 13:54:08;;;;;;;21.02;12.45;;;;;;;22.41;79.53;100987.88;4920514;29;20064;-92
2022/10/11 13:56:43;;;;;;;25.27;13.85;;;;;;;22.15;80.34;100972.88;4918960;29;20077;-92
2022/10/11 13:59:27;;;;;;;19.38;11.30;;;;;;;22.35;79.10;100980.72;4907090;29;20471;-92
2022/10/11 14:02:00;;;;;;;16.88;11.43;;;;;;;22.19;79.77;100986.72;4893808;29;20063;-93
2022/10/11 14:04:26;;;;;;;22.85;11.80;;;;;;;22.05;80.40;100976.09;4893437;29;20040;-91
2022/10/11 14:07:22;;;;;;;21.90;11.82;;;;;;;21.97;80.24;100973.72;4915838;29;20028;-93
2022/10/11 14:09:48;;;;;;;21.63;12.45;;;;;;;21.95;80.12;100970.41;4948117;29;20047;-90
2022/10/11 14:12:39;;;;;;;15.10;10.68;;;;;;;22.08;80.47;100972.13;4929741;29;20043;-93
2022/10/11 14:15:31;;;;;;;19.38;11.77;;;;;;;22.07;81.63;100971.28;4939867;29;20093;-90
2022/10/11 14:17:59;;;;;;;24.75;11.93;;;;;;;22.06;82.61;100969.66;4900185;29;20064;-91
2022/10/11 14:20:37;;;;;;;22.00;12.80;;;;;;;22.11;83.10;100979.75;4907805;29;20036;-92
2022/10/11 14:23:04;;;;;;;22.52;13.32;;;;;;;22.17;82.48;100971.56;4902919;29;20410;-90
2022/10/11 14:25:33;;;;;;;25.13;13.10;;;;;;;21.97;82.49;100962.09;4901913;29;20056;-92
2022/10/11 14:28:09;;;;;;;23.70;12.90;;;;;;;21.97;81.98;100962.09;4911055;29;20044;-92
2022/10/11 14:30:35;;;;;;;21.40;11.77;;;;;;;21.99;81.97;100959.97;4912372;29;20035;-89
2022/10/11 14:33:11;;;;;;;24.63;11.55;;;;;;;22.04;80.08;100960.16;4912918;29;20046;-91
2022/10/11 14:35:37;;;;;;;16.08;10.50;;;;;;;22.00;80.97;100953.53;4878154;29;20486;-90
2022/10/11 14:38:03;;;;;;;25.58;11.70;;;;;;;22.20;80.12;100966.78;4906250;29;20097;-91
2022/10/11 14:40:30;;;;;;;19.25;10.18;;;;;;;22.07;80.54;100962.38;4902502;29;20372;-91
2022/10/11 14:42:56;;;;;;;20.95;10.73;;;;;;;21.81;80.32;100962.66;4883187;29;20040;-91
2022/10/11 14:45:24;;;;;;;18.95;10.00;;;;;;;21.85;80.80;100964.69;4906336;29;20121;-91
2022/10/11 14:47:53;;;;;;;23.85;11.07;;;;;;;22.19;78.37;100960.56;4895495;29;20455;-93
2022/10/11 14:50:44;;;;;;;20.25;10.52;;;;;;;22.20;77.80;100961.38;4897512;29;20069;-91
2022/10/11 14:53:16;;;;;;;21.63;11.57;;;;;;;22.20;77.49;100962.22;4906423;29;20060;-91
2022/10/11 14:55:46;;;;;;;18.77;11.07;;;;;;;22.20;78.81;100962.22;4897596;29;20095;-90
2022/10/11 14:58:16;;;;;;;22.55;13.48;;;;;;;21.77;81.01;100956.06;4915630;29;20042;-91
2022/10/11 15:00:45;;;;;;;26.38;11.77;;;;;;;21.62;82.15;100959.94;4911713;29;20419;-91
2022/10/11 15:03:11;;;;;;;19.88;11.25;;;;;;;21.86;80.95;100955.53;4910370;29;20040;-89
2022/10/11 15:05:50;;;;;;;19.20;11.50;;;;;;;21.70;82.32;100960.72;4923897;29;20029;-91
2022/10/11 15:08:24;;;;;;;20.02;11.90;;;;;;;21.68;81.95;100963.63;4898637;29;20068;-90
2022/10/11 15:10:59;;;;;;;23.42;12.50;;;;;;;21.90;80.82;100950.56;4912085;29;20082;-91
2022/10/11 15:13:25;;;;;;;18.70;10.73;;;;;;;21.84;79.60;100951.44;4915833;29;20036;-89
2022/10/11 15:15:54;;;;;;;22.58;11.27;;;;;;;21.96;78.53;100955.03;4915908;29;20095;-90
2022/10/11 15:18:24;;;;;;;17.65;11.52;;;;;;;22.12;77.40;100955.25;4926794;29;20127;-92
2022/10/11 15:20:56;;;;;;;21.95;11.18;;;;;;;22.04;78.18;100949.34;4916399;29;20040;-92
2022/10/11 15:23:23;;;;;;;17.90;10.88;;;;;;;21.97;78.84;100943.19;4921713;29;20044;-93